Time;durP1;ratioP1;P1;durP2;ratioP2;P2;SDS_P1;SDS_P2;PMS_P1;PMS_P2;Temp;Humidity;BMP_temperature;BMP_pressure;BME280_temperature;BME280_humidity;BME280_pressure;Samples;Min_cycle;Max_cycle;Signal;HPM_P1;HPM_P2
2021/08/04 00:02:24;;;;;;;3.77;2.52;;;;;;;14.42;95.52;99901.32;1565526;91;21090;-83
2021/08/04 00:04:50;;;;;;;3.25;2.40;;;;;;;14.42;95.58;99902.16;1565771;92;21023;-83
2021/08/04 00:07:17;;;;;;;4.12;2.67;;;;;;;14.41;95.58;99893.85;1565408;91;21050;-83
2021/08/04 00:09:44;;;;;;;3.65;2.62;;;;;;;14.41;95.49;99889.88;1565756;91;20999;-83
2021/08/04 00:12:10;;;;;;;2.75;2.10;;;;;;;14.43;95.42;99890.55;1564834;90;21058;-83
2021/08/04 00:14:37;;;;;;;4.28;2.33;;;;;;;14.43;95.60;99895.02;1565681;92;21509;-83
2021/08/04 00:17:04;;;;;;;4.78;2.42;;;;;;;14.44;95.81;99897.52;1565538;92;21045;-83
2021/08/04 00:19:30;;;;;;;2.25;1.95;;;;;;;14.46;95.80;99895.56;1565606;92;21063;-83
2021/08/04 00:21:56;;;;;;;4.83;3.02;;;;;;;14.47;95.61;99904.36;1565433;92;21050;-83
2021/08/04 00:24:22;;;;;;;4.30;2.50;;;;;;;14.46;95.64;99906.67;1565885;92;21058;-83
2021/08/04 00:26:48;;;;;;;3.05;2.42;;;;;;;14.48;95.93;99903.39;1565511;92;21038;-83
2021/08/04 00:29:14;;;;;;;2.75;2.40;;;;;;;14.49;95.99;99896.59;1565703;91;21126;-83
2021/08/04 00:31:40;;;;;;;6.20;2.67;;;;;;;14.50;95.82;99900.08;1565554;92;21002;-83
2021/08/04 00:34:06;;;;;;;3.15;2.58;;;;;;;14.50;95.77;99904.06;1565729;91;21046;-83
2021/08/04 00:36:32;;;;;;;4.28;3.25;;;;;;;14.50;95.92;99885.02;1565685;92;21062;-83
2021/08/04 00:38:58;;;;;;;3.20;2.37;;;;;;;14.52;95.71;99886.21;1565626;92;21509;-83
2021/08/04 00:41:24;;;;;;;5.40;2.87;;;;;;;14.52;95.70;99880.91;1565597;91;21114;-83
2021/08/04 00:43:51;;;;;;;3.30;2.30;;;;;;;14.52;95.86;99880.41;1565504;91;21083;-82
2021/08/04 00:46:17;;;;;;;4.58;2.92;;;;;;;14.53;96.00;99881.23;1565593;91;21589;-83
2021/08/04 00:48:44;;;;;;;3.10;2.50;;;;;;;14.53;96.05;99878.58;1565860;92;21078;-83
2021/08/04 00:51:11;;;;;;;3.67;3.17;;;;;;;14.53;95.92;99888.70;1565496;92;21591;-83
2021/08/04 00:53:37;;;;;;;4.40;3.30;;;;;;;14.51;95.79;99886.70;1565658;92;21018;-83
2021/08/04 00:56:09;;;;;;;3.92;2.30;;;;;;;14.51;95.89;99881.40;1565660;92;21034;-83
2021/08/04 00:58:39;;;;;;;3.05;2.50;;;;;;;14.52;95.90;99880.41;1565660;91;21505;-83
2021/08/04 01:01:13;;;;;;;5.25;2.98;;;;;;;14.54;96.12;99878.91;1565635;92;21048;-83
2021/08/04 01:03:44;;;;;;;4.97;2.80;;;;;;;14.54;96.23;99875.80;1565468;91;21118;-82
2021/08/04 01:06:27;;;;;;;2.83;2.30;;;;;;;14.57;96.26;99877.80;1565440;92;20991;-82
2021/08/04 01:08:58;;;;;;;4.85;2.70;;;;;;;14.56;96.26;99868.17;1565690;91;21557;-83
2021/08/04 01:11:38;;;;;;;3.92;2.80;;;;;;;14.57;96.45;99877.80;1565536;92;21070;-83
2021/08/04 01:14:08;;;;;;;4.05;2.50;;;;;;;14.58;96.33;99869.70;1565659;91;21018;-83
2021/08/04 01:16:39;;;;;;;4.12;2.45;;;;;;;14.58;96.17;99862.20;1565498;92;21054;-83
2021/08/04 01:19:22;;;;;;;3.83;2.62;;;;;;;14.58;96.19;99862.20;1565626;91;21015;-83
2021/08/04 01:22:31;;;;;;;5.20;2.52;;;;;;;14.58;96.17;99859.54;1563611;90;21058;-83
2021/08/04 01:25:15;;;;;;;4.08;2.72;;;;;;;14.58;96.13;99859.54;1540013;92;21128;-83
2021/08/04 01:27:46;;;;;;;4.97;3.22;;;;;;;14.57;96.20;99852.08;1565527;92;21018;-83
2021/08/04 01:30:13;;;;;;;4.60;2.37;;;;;;;14.57;96.33;99853.89;1565696;92;21048;-83
2021/08/04 01:32:40;;;;;;;2.98;2.33;;;;;;;14.57;96.32;99855.23;1565455;92;21051;-83
2021/08/04 01:35:07;;;;;;;4.50;2.62;;;;;;;14.56;96.33;99853.06;1565565;92;21078;-83
2021/08/04 01:37:36;;;;;;;3.08;2.50;;;;;;;14.56;96.29;99852.23;1565457;91;20994;-83
2021/08/04 01:40:06;;;;;;;4.67;3.08;;;;;;;14.55;96.20;99847.42;1565734;92;21122;-84
2021/08/04 01:42:34;;;;;;;4.15;2.45;;;;;;;14.54;96.22;99853.23;1565447;92;21019;-84
2021/08/04 01:45:03;;;;;;;4.65;2.72;;;;;;;14.53;96.37;99852.86;1565592;92;21066;-83
2021/08/04 01:47:31;;;;;;;5.08;2.70;;;;;;;14.52;96.51;99851.20;1565377;92;21007;-83
2021/08/04 01:49:59;;;;;;;4.75;2.58;;;;;;;14.53;96.51;99860.83;1565598;92;21115;-83
2021/08/04 01:52:27;;;;;;;9.48;5.00;;;;;;;14.55;96.59;99872.64;1565412;92;20999;-83
2021/08/04 01:54:55;;;;;;;6.85;3.50;;;;;;;14.53;96.30;99868.80;1565752;91;21039;-84
2021/08/04 01:57:21;;;;;;;8.30;3.10;;;;;;;14.50;96.21;99863.78;1565647;91;21063;-84
2021/08/04 01:59:47;;;;;;;4.15;2.30;;;;;;;14.50;96.42;99873.53;1565808;92;21484;-83
2021/08/04 02:02:22;;;;;;;5.33;3.00;;;;;;;14.49;96.44;99870.55;1565537;92;21143;-83
2021/08/04 02:04:49;;;;;;;5.85;3.08;;;;;;;14.48;96.32;99864.91;1565742;91;21477;-83
2021/08/04 02:07:55;;;;;;;3.75;2.92;;;;;;;14.48;96.38;99863.58;1565487;92;21391;-83
2021/08/04 02:10:26;;;;;;;4.17;3.08;;;;;;;14.48;96.39;99859.09;1565766;91;21062;-83
2021/08/04 02:13:04;;;;;;;4.83;2.70;;;;;;;14.44;96.29;99855.04;1565288;90;21544;-83
2021/08/04 02:15:33;;;;;;;4.37;2.98;;;;;;;14.44;96.59;99856.86;1564257;92;21042;-82
2021/08/04 02:18:04;;;;;;;5.90;3.20;;;;;;;14.44;96.66;99856.37;1565631;92;21122;-83
2021/08/04 02:20:37;;;;;;;5.25;3.98;;;;;;;14.43;96.54;99854.70;1564736;91;20999;-82
2021/08/04 02:23:26;;;;;;;5.95;3.17;;;;;;;14.40;96.36;99860.80;1565633;92;21093;-82
2021/08/04 02:26:17;;;;;;;3.60;2.72;;;;;;;14.38;96.46;99860.11;1565759;92;21015;-82
2021/08/04 02:28:46;;;;;;;3.98;3.37;;;;;;;14.37;96.48;99855.29;1565659;91;21003;-83
2021/08/04 02:31:15;;;;;;;3.87;3.15;;;;;;;14.37;96.66;99861.09;1565644;91;21466;-83
2021/08/04 02:33:43;;;;;;;6.08;3.40;;;;;;;14.37;96.77;99863.75;1540261;92;21172;-83
2021/08/04 02:36:11;;;;;;;3.58;3.02;;;;;;;14.34;96.40;99859.56;1565630;91;21604;-83
2021/08/04 02:38:37;;;;;;;4.03;3.12;;;;;;;14.30;96.39;99856.87;1565567;91;21042;-82
2021/08/04 02:41:03;;;;;;;4.35;3.00;;;;;;;14.28;96.54;99850.39;1565590;92;21030;-82
2021/08/04 02:43:31;;;;;;;4.05;2.45;;;;;;;14.27;96.67;99846.55;1565666;91;21067;-82
2021/08/04 02:45:59;;;;;;;4.20;2.95;;;;;;;14.25;96.72;99846.70;1565690;91;21071;-83
2021/08/04 02:48:26;;;;;;;6.22;2.77;;;;;;;14.26;96.79;99847.53;1565572;92;21078;-83
2021/08/04 02:50:59;;;;;;;4.90;4.22;;;;;;;14.26;96.80;99845.71;1565537;92;21054;-83
2021/08/04 02:53:25;;;;;;;3.85;3.10;;;;;;;14.27;96.81;99853.17;1565605;91;20979;-83
2021/08/04 02:55:52;;;;;;;5.17;2.72;;;;;;;14.25;96.84;99853.83;1565658;91;21559;-83
2021/08/04 02:58:18;;;;;;;6.20;2.87;;;;;;;14.24;96.70;99860.93;1565581;92;21039;-83
2021/08/04 03:00:45;;;;;;;3.15;2.85;;;;;;;14.21;96.81;99851.94;1565668;91;21533;-83
2021/08/04 03:03:11;;;;;;;3.60;3.12;;;;;;;14.21;96.90;99864.37;1565538;92;21110;-83
2021/08/04 03:05:38;;;;;;;6.40;3.70;;;;;;;14.23;97.16;99861.09;1565650;92;21018;-83
2021/08/04 03:08:04;;;;;;;4.25;3.45;;;;;;;14.23;97.02;99857.94;1565611;92;21035;-83
2021/08/04 03:10:30;;;;;;;4.20;3.05;;;;;;;14.21;96.89;99859.06;1565590;91;21160;-83
2021/08/04 03:12:56;;;;;;;3.05;2.75;;;;;;;14.21;97.02;99861.22;1565806;91;21074;-83
2021/08/04 03:15:22;;;;;;;6.58;3.40;;;;;;;14.21;97.07;99866.53;1565703;92;21536;-83
2021/08/04 03:17:48;;;;;;;6.22;3.30;;;;;;;14.23;97.20;99862.42;1565543;92;21042;-83
2021/08/04 03:20:14;;;;;;;4.40;3.40;;;;;;;14.21;96.92;99865.20;1565660;91;21111;-83
2021/08/04 03:22:49;;;;;;;6.28;3.62;;;;;;;14.20;97.07;99870.17;1565518;92;22314;-83
2021/08/04 03:25:18;;;;;;;4.78;3.95;;;;;;;14.20;97.22;99873.33;1565756;91;21046;-83
2021/08/04 03:27:45;;;;;;;5.67;3.58;;;;;;;14.20;97.22;99874.65;1565494;92;21506;-83
2021/08/04 03:30:13;;;;;;;6.47;3.47;;;;;;;14.21;97.17;99874.98;1565715;92;21025;-83
2021/08/04 03:32:39;;;;;;;4.60;3.12;;;;;;;14.20;97.16;99870.67;1565497;91;21015;-83
2021/08/04 03:35:06;;;;;;;4.25;3.42;;;;;;;14.22;97.37;99879.33;1565705;91;21510;-83
2021/08/04 03:37:32;;;;;;;7.37;3.47;;;;;;;14.21;97.38;99878.47;1565541;92;21505;-83
2021/08/04 03:39:59;;;;;;;6.42;3.15;;;;;;;14.23;97.49;99881.00;1565724;91;21014;-83
2021/08/04 03:42:25;;;;;;;4.87;3.25;;;;;;;14.23;97.52;99881.83;1565507;91;21031;-83
2021/08/04 03:44:51;;;;;;;4.22;2.77;;;;;;;14.25;97.63;99880.38;1565653;92;21114;-83
2021/08/04 03:47:17;;;;;;;4.30;3.52;;;;;;;14.25;97.39;99881.20;1565567;92;21106;-83
2021/08/04 03:49:43;;;;;;;6.70;3.20;;;;;;;14.26;97.33;99883.36;1565648;92;21091;-83
2021/08/04 03:52:08;;;;;;;5.00;3.25;;;;;;;14.25;97.34;99880.38;1565503;92;21047;-83
2021/08/04 03:54:34;;;;;;;3.87;3.47;;;;;;;14.26;97.51;99884.69;1565645;92;21059;-83
2021/08/04 03:57:00;;;;;;;4.28;3.10;;;;;;;14.25;97.62;99885.18;1565421;92;21113;-83
2021/08/04 03:59:26;;;;;;;4.08;2.95;;;;;;;14.27;97.77;99883.69;1565754;92;21461;-83
2021/08/04 04:01:52;;;;;;;4.62;3.15;;;;;;;14.29;97.77;99884.40;1565416;92;21094;-83
2021/08/04 04:04:18;;;;;;;7.95;3.47;;;;;;;14.30;97.73;99886.89;1565772;92;21446;-83
2021/08/04 04:06:44;;;;;;;4.70;2.60;;;;;;;14.32;97.87;99896.05;1565533;92;21047;-83
2021/08/04 04:09:10;;;;;;;4.62;3.17;;;;;;;14.33;97.94;99897.71;1565674;91;21003;-83
2021/08/04 04:11:37;;;;;;;5.55;2.95;;;;;;;14.33;97.91;99896.38;1565565;91;21086;-83
2021/08/04 04:14:03;;;;;;;4.80;2.72;;;;;;;14.35;98.09;99904.22;1565546;92;21525;-83
2021/08/04 04:16:29;;;;;;;4.72;2.70;;;;;;;14.38;97.89;99903.90;1565654;92;21077;-83
2021/08/04 04:18:55;;;;;;;6.78;3.25;;;;;;;14.38;97.87;99910.07;1565568;91;21038;-83
2021/08/04 04:21:21;;;;;;;5.55;3.87;;;;;;;14.39;97.85;99915.71;1565624;92;21047;-83
2021/08/04 04:23:47;;;;;;;4.92;3.20;;;;;;;14.39;97.84;99911.73;1565537;92;21070;-83
2021/08/04 04:26:13;;;;;;;5.42;3.52;;;;;;;14.41;98.15;99911.11;1565662;92;21023;-83
2021/08/04 04:28:39;;;;;;;5.75;3.55;;;;;;;14.44;97.91;99912.61;1565613;92;21014;-83
2021/08/04 04:31:05;;;;;;;4.33;3.10;;;;;;;14.44;97.91;99916.09;1565640;92;21074;-83
2021/08/04 04:33:31;;;;;;;6.17;4.08;;;;;;;14.47;97.92;99916.30;1565485;91;21027;-83
2021/08/04 04:35:58;;;;;;;4.60;3.47;;;;;;;14.45;97.68;99919.11;1565622;92;21047;-83
2021/08/04 04:38:25;;;;;;;5.67;4.78;;;;;;;14.45;97.60;99920.94;1565253;92;21202;-83
2021/08/04 04:40:51;;;;;;;5.50;3.87;;;;;;;14.45;97.80;99923.59;1565605;92;21533;-83
2021/08/04 04:43:17;;;;;;;4.58;3.92;;;;;;;14.46;98.11;99927.41;1565517;92;21038;-84
2021/08/04 04:45:43;;;;;;;5.28;4.33;;;;;;;14.48;98.27;99924.13;1565583;92;21044;-83
2021/08/04 04:48:09;;;;;;;4.25;3.42;;;;;;;14.51;98.32;99929.65;1565401;92;21062;-83
2021/08/04 04:50:36;;;;;;;4.78;3.60;;;;;;;14.52;98.07;99933.50;1565673;92;21030;-83
2021/08/04 04:53:02;;;;;;;8.48;4.37;;;;;;;14.55;98.42;99935.04;1565483;92;21564;-83
2021/08/04 04:55:28;;;;;;;5.30;3.67;;;;;;;14.58;98.67;99935.21;1565660;91;21098;-83
2021/08/04 04:57:54;;;;;;;6.47;4.25;;;;;;;14.60;98.60;99937.23;1565467;92;21003;-84
2021/08/04 05:00:20;;;;;;;4.80;4.03;;;;;;;14.62;98.76;99937.94;1565689;92;20975;-84
2021/08/04 05:02:47;;;;;;;5.40;4.12;;;;;;;14.65;98.60;99945.62;1565400;92;21055;-84
2021/08/04 05:05:13;;;;;;;6.47;4.72;;;;;;;14.66;98.89;99941.97;1565588;92;21003;-85
2021/08/04 05:07:38;;;;;;;5.50;4.12;;;;;;;14.68;99.13;99947.48;1565489;92;21537;-85
2021/08/04 05:10:05;;;;;;;6.47;4.58;;;;;;;14.71;98.87;99947.69;1565734;91;21013;-85
2021/08/04 05:12:31;;;;;;;6.72;4.37;;;;;;;14.72;98.91;99950.19;1565440;92;21493;-85
2021/08/04 05:14:57;;;;;;;8.83;4.45;;;;;;;14.72;98.86;99948.86;1565638;91;21022;-85
2021/08/04 05:17:24;;;;;;;7.85;4.53;;;;;;;14.74;99.00;99950.88;1565517;92;21062;-85
2021/08/04 05:19:51;;;;;;;5.83;4.78;;;;;;;14.77;99.20;99947.94;1565646;91;21461;-85
2021/08/04 05:22:18;;;;;;;6.05;4.50;;;;;;;14.80;99.16;99950.77;1565412;92;22398;-85
2021/08/04 05:24:44;;;;;;;6.37;4.60;;;;;;;14.80;99.21;99941.47;1565691;91;21046;-85
2021/08/04 05:27:10;;;;;;;6.22;3.65;;;;;;;14.82;99.33;99947.98;1565205;92;21601;-85
2021/08/04 05:29:36;;;;;;;5.75;4.42;;;;;;;14.83;99.36;99946.98;1565644;92;21429;-86
2021/08/04 05:32:02;;;;;;;5.90;4.67;;;;;;;14.84;99.43;99945.52;1565535;92;21086;-85
2021/08/04 05:34:29;;;;;;;6.45;4.22;;;;;;;14.86;99.24;99948.85;1565728;91;21014;-85
2021/08/04 05:36:54;;;;;;;6.25;4.72;;;;;;;14.88;99.20;99950.88;1565323;92;21549;-84
2021/08/04 05:39:21;;;;;;;4.95;4.17;;;;;;;14.90;99.37;99950.22;1565522;92;21127;-84
2021/08/04 05:41:47;;;;;;;5.83;4.35;;;;;;;14.93;99.33;99948.59;1565378;92;21560;-84
2021/08/04 05:44:12;;;;;;;4.40;3.70;;;;;;;14.96;99.24;99950.95;1565730;92;21087;-84
2021/08/04 05:46:38;;;;;;;8.78;4.35;;;;;;;14.97;99.13;99950.00;1565455;92;21071;-84
2021/08/04 05:49:04;;;;;;;6.47;4.22;;;;;;;14.99;99.16;99949.83;1565673;92;21039;-84
2021/08/04 05:51:30;;;;;;;4.42;3.90;;;;;;;15.03;99.21;99948.54;1565516;92;21498;-84
2021/08/04 05:53:56;;;;;;;8.23;5.45;;;;;;;15.05;99.19;99944.42;1565529;92;21003;-83
2021/08/04 05:56:22;;;;;;;7.00;5.62;;;;;;;15.06;99.16;99943.43;1565669;92;21064;-83
2021/08/04 05:58:48;;;;;;;5.97;5.37;;;;;;;15.07;99.22;99947.28;1565454;92;21090;-83
2021/08/04 06:01:14;;;;;;;9.05;5.60;;;;;;;15.08;99.19;99947.61;1565558;92;21497;-83
2021/08/04 06:03:40;;;;;;;11.83;8.33;;;;;;;15.10;99.28;99948.78;1540087;92;21099;-83
2021/08/04 06:06:06;;;;;;;7.17;5.47;;;;;;;15.10;99.36;99946.13;1565637;92;21007;-83
2021/08/04 06:08:32;;;;;;;8.03;6.03;;;;;;;15.13;99.44;99949.81;1565427;92;21066;-83
2021/08/04 06:10:58;;;;;;;8.45;5.53;;;;;;;15.13;99.54;99944.00;1565649;92;21083;-82
2021/08/04 06:13:24;;;;;;;8.18;5.78;;;;;;;15.14;99.61;99948.34;1565495;91;21018;-83
2021/08/04 06:15:53;;;;;;;6.62;5.05;;;;;;;15.16;99.66;99946.86;1565515;92;21042;-83
2021/08/04 06:18:18;;;;;;;5.80;5.15;;;;;;;15.17;99.67;99946.72;1565274;90;21518;-82
2021/08/04 06:20:45;;;;;;;8.28;6.85;;;;;;;15.15;99.62;99951.34;1565583;92;21038;-82
2021/08/04 06:23:11;;;;;;;9.85;7.25;;;;;;;15.12;99.62;99953.47;1565540;92;21007;-82
2021/08/04 06:25:37;;;;;;;8.73;7.28;;;;;;;15.11;99.68;99952.63;1565573;92;21074;-83
2021/08/04 06:28:03;;;;;;;7.72;6.08;;;;;;;15.11;99.83;99952.63;1565490;92;21530;-83
2021/08/04 06:30:29;;;;;;;7.08;5.33;;;;;;;15.12;100.00;99950.80;1565564;92;21522;-83
2021/08/04 06:32:56;;;;;;;6.33;5.10;;;;;;;15.11;100.00;99954.45;1565578;92;20995;-83
2021/08/04 06:35:22;;;;;;;5.95;5.35;;;;;;;15.10;100.00;99951.44;1565593;91;21018;-83
2021/08/04 06:37:48;;;;;;;6.42;4.60;;;;;;;15.08;100.00;99950.27;1565461;91;21556;-83
2021/08/04 06:40:14;;;;;;;6.95;4.65;;;;;;;15.11;100.00;99953.13;1565734;92;20971;-83
2021/08/04 06:42:41;;;;;;;6.42;5.83;;;;;;;15.12;100.00;99943.66;1565590;92;21035;-83
2021/08/04 06:45:09;;;;;;;6.60;4.67;;;;;;;15.15;100.00;99950.02;1565653;92;21083;-83
2021/08/04 06:47:38;;;;;;;6.45;4.50;;;;;;;15.16;100.00;99949.52;1565507;91;21023;-83
2021/08/04 06:50:05;;;;;;;5.22;4.60;;;;;;;15.17;100.00;99952.53;1565751;92;21469;-83
2021/08/04 06:52:31;;;;;;;6.53;4.62;;;;;;;15.17;100.00;99956.52;1565523;91;21568;-83
2021/08/04 06:54:57;;;;;;;6.40;5.28;;;;;;;15.17;100.00;99961.84;1565834;92;20998;-83
2021/08/04 06:57:23;;;;;;;6.00;4.70;;;;;;;15.21;100.00;99955.23;1565546;92;21014;-83
2021/08/04 06:59:49;;;;;;;6.30;4.58;;;;;;;15.23;100.00;99950.58;1565568;91;21120;-84
2021/08/04 07:02:15;;;;;;;4.70;3.58;;;;;;;15.27;100.00;99961.28;1565135;92;21074;-84
2021/08/04 07:04:41;;;;;;;4.40;3.83;;;;;;;15.30;100.00;99951.67;1565693;92;20991;-84
2021/08/04 07:07:07;;;;;;;5.42;3.67;;;;;;;15.32;100.00;99958.16;1565642;92;21517;-84
2021/08/04 07:09:35;;;;;;;6.30;4.20;;;;;;;15.32;100.00;99967.45;1565726;91;21058;-85
2021/08/04 07:12:03;;;;;;;5.03;3.83;;;;;;;15.34;100.00;99970.81;1565713;91;21090;-85
2021/08/04 07:14:29;;;;;;;7.70;4.20;;;;;;;15.37;100.00;99970.52;1565768;92;21007;-85
2021/08/04 07:16:55;;;;;;;5.80;3.55;;;;;;;15.38;100.00;99978.83;1565298;92;21573;-85
2021/08/04 07:19:21;;;;;;;6.10;4.55;;;;;;;15.39;100.00;99981.31;1565728;92;21043;-85
2021/08/04 07:21:47;;;;;;;4.47;3.77;;;;;;;15.41;100.00;99982.52;1565592;92;21638;-86
2021/08/04 07:24:14;;;;;;;5.12;3.92;;;;;;;15.43;100.00;99980.05;1565701;92;21067;-86
2021/08/04 07:26:42;;;;;;;5.25;3.30;;;;;;;15.48;100.00;99971.61;1565482;92;21142;-86
2021/08/04 07:29:08;;;;;;;6.08;3.92;;;;;;;15.52;100.00;99978.29;1565778;91;21030;-86
2021/08/04 07:31:35;;;;;;;6.55;5.40;;;;;;;15.55;100.00;99982.47;1565416;91;21496;-86
2021/08/04 07:34:01;;;;;;;7.83;5.97;;;;;;;15.56;100.00;99982.81;1565591;91;21034;-86
2021/08/04 07:36:27;;;;;;;7.87;6.80;;;;;;;15.57;100.00;99979.19;1565428;92;21557;-85
2021/08/04 07:38:53;;;;;;;5.78;4.85;;;;;;;15.60;100.00;99981.54;1565394;92;21097;-86
2021/08/04 07:41:19;;;;;;;8.00;5.40;;;;;;;15.64;100.00;99976.25;1565579;92;21042;-85
2021/08/04 07:43:45;;;;;;;6.03;4.47;;;;;;;15.69;100.00;99982.83;1565437;91;21117;-85
2021/08/04 07:46:12;;;;;;;5.10;3.75;;;;;;;15.75;100.00;99973.88;1565520;92;21636;-85
2021/08/04 07:48:39;;;;;;;4.80;3.83;;;;;;;15.76;100.00;99980.39;1565259;91;21134;-85
2021/08/04 07:51:05;;;;;;;5.47;3.55;;;;;;;15.78;100.00;99972.24;1565178;92;21513;-85
2021/08/04 07:53:31;;;;;;;5.67;3.50;;;;;;;15.78;100.00;99974.41;1565510;92;21054;-84
2021/08/04 07:55:58;;;;;;;4.20;3.35;;;;;;;15.80;100.00;99979.09;1565527;92;21038;-84
2021/08/04 07:58:24;;;;;;;3.87;3.47;;;;;;;15.82;100.00;99977.09;1565280;92;21508;-85
2021/08/04 08:00:50;;;;;;;4.85;4.35;;;;;;;15.86;100.00;99979.81;1565509;91;21079;-85
2021/08/04 08:03:16;;;;;;;4.42;3.67;;;;;;;15.91;100.00;99978.83;1565256;92;21045;-84
2021/08/04 08:05:42;;;;;;;6.25;4.40;;;;;;;15.92;100.00;99976.50;1565269;92;21071;-84
2021/08/04 08:08:08;;;;;;;5.12;4.40;;;;;;;15.94;100.00;99974.53;1565413;92;21577;-84
2021/08/04 08:10:37;;;;;;;5.50;3.98;;;;;;;15.97;100.00;99976.56;1565546;92;21067;-84
2021/08/04 08:13:05;;;;;;;4.97;4.47;;;;;;;16.02;100.00;99974.25;1565183;92;21533;-84
2021/08/04 08:15:32;;;;;;;5.53;4.17;;;;;;;16.09;100.00;99976.63;1565552;92;21513;-84
2021/08/04 08:17:58;;;;;;;5.50;4.47;;;;;;;16.13;100.00;99982.01;1565476;91;21011;-84
2021/08/04 08:20:26;;;;;;;4.17;3.77;;;;;;;16.17;100.00;99980.70;1565712;91;21026;-84
2021/08/04 08:22:52;;;;;;;5.58;4.70;;;;;;;16.21;100.00;99978.55;1565340;92;21098;-84
2021/08/04 08:25:19;;;;;;;7.58;4.42;;;;;;;16.24;100.00;99981.73;1565633;92;21091;-85
2021/08/04 08:27:46;;;;;;;6.55;5.58;;;;;;;16.27;100.00;99981.92;1565521;92;21489;-84
2021/08/04 08:30:13;;;;;;;5.87;5.28;;;;;;;16.33;100.00;99980.80;1565513;92;21070;-85
2021/08/04 08:32:39;;;;;;;5.55;4.67;;;;;;;16.43;100.00;99985.20;1565390;92;21049;-84
2021/08/04 08:35:08;;;;;;;7.55;5.00;;;;;;;16.47;100.00;99986.55;1565517;91;21018;-84
2021/08/04 08:37:34;;;;;;;5.42;4.70;;;;;;;16.53;100.00;99987.25;1565223;92;21031;-84
2021/08/04 08:40:00;;;;;;;5.00;4.50;;;;;;;16.62;100.00;99982.31;1565319;92;21098;-86
2021/08/04 08:42:26;;;;;;;6.35;4.60;;;;;;;16.72;100.00;99982.19;1565647;92;21077;-86
2021/08/04 08:44:53;;;;;;;7.40;4.78;;;;;;;16.78;100.00;99981.09;1565379;92;21038;-85
2021/08/04 08:47:19;;;;;;;5.10;4.53;;;;;;;16.86;100.00;99988.27;1565119;92;21078;-86
2021/08/04 08:49:48;;;;;;;5.65;4.95;;;;;;;16.93;100.00;99985.30;1565643;92;21469;-88
2021/08/04 08:52:14;;;;;;;5.47;4.50;;;;;;;16.98;100.00;99976.81;1565362;91;21071;-88
2021/08/04 08:54:40;;;;;;;7.58;4.42;;;;;;;17.06;100.00;99975.52;1565607;92;21485;-87
2021/08/04 08:57:07;;;;;;;6.47;4.75;;;;;;;17.12;100.00;99969.55;1540032;92;21078;-89
2021/08/04 08:59:33;;;;;;;9.00;4.20;;;;;;;17.24;100.00;99972.25;1565830;92;21047;-88
2021/08/04 09:02:03;;;;;;;4.40;4.00;;;;;;;17.34;100.00;99973.41;1565449;91;21553;-88
2021/08/04 09:04:30;;;;;;;5.12;4.60;;;;;;;17.44;100.00;99965.27;1565585;92;21095;-88
2021/08/04 09:07:03;;;;;;;5.40;3.52;;;;;;;17.56;100.00;99965.29;1565565;92;21556;-87
2021/08/04 09:09:30;;;;;;;4.42;3.98;;;;;;;17.68;100.00;99970.64;1564697;91;21074;-87
2021/08/04 09:12:09;;;;;;;4.67;4.25;;;;;;;17.79;100.00;99969.50;1565578;92;21057;-87
2021/08/04 09:14:35;;;;;;;4.05;3.60;;;;;;;17.87;100.00;99966.85;1562088;92;21115;-87
2021/08/04 09:17:14;;;;;;;3.70;2.52;;;;;;;17.93;100.00;99964.85;1565574;92;21163;-86
2021/08/04 09:19:47;;;;;;;4.45;3.45;;;;;;;18.04;100.00;99964.50;1565594;92;21034;-87
2021/08/04 09:22:25;;;;;;;6.25;3.45;;;;;;;18.29;100.00;99967.12;1565343;92;21045;-85
2021/08/04 09:25:10;;;;;;;3.47;2.60;;;;;;;18.29;100.00;99967.12;1565683;91;21018;-86
2021/08/04 09:27:56;;;;;;;2.25;1.10;;;;;;;18.38;100.00;99969.28;1565428;92;21411;-85
2021/08/04 09:30:33;;;;;;;3.52;2.35;;;;;;;18.43;100.00;99969.63;1565379;92;21544;-86
2021/08/04 09:33:17;;;;;;;4.78;1.87;;;;;;;18.38;100.00;99950.59;1564949;92;21058;-85
2021/08/04 09:35:48;;;;;;;2.42;1.92;;;;;;;18.50;99.61;99967.92;1565543;91;21074;-85
2021/08/04 09:38:15;;;;;;;3.17;1.50;;;;;;;18.48;98.90;99969.92;1565317;91;21561;-84
2021/08/04 09:40:41;;;;;;;2.35;1.62;;;;;;;18.51;99.72;99962.40;1565407;92;21070;-84
2021/08/04 09:43:07;;;;;;;2.40;1.80;;;;;;;18.39;98.64;99932.20;1565236;92;21018;-85
2021/08/04 09:45:48;;;;;;;1.70;1.10;;;;;;;18.65;99.59;99965.36;1565541;92;21007;-84
2021/08/04 09:48:16;;;;;;;2.55;1.98;;;;;;;18.76;99.02;99956.19;1565067;92;21154;-85
2021/08/04 09:51:01;;;;;;;3.12;2.35;;;;;;;18.83;98.35;99957.16;1565298;92;21097;-85
2021/08/04 09:53:32;;;;;;;2.92;2.22;;;;;;;18.87;97.34;99959.30;1565479;92;21066;-85
2021/08/04 09:56:16;;;;;;;4.10;1.87;;;;;;;18.94;97.88;99958.09;1565485;91;21018;-85
2021/08/04 09:58:52;;;;;;;2.47;1.75;;;;;;;19.04;98.64;99951.20;1565452;92;21027;-88
2021/08/04 10:01:25;;;;;;;2.05;1.70;;;;;;;19.11;98.31;99951.64;1565590;91;21028;-86
2021/08/04 10:04:05;;;;;;;4.10;1.52;;;;;;;19.13;97.17;99956.84;1558991;92;21070;-86
2021/08/04 10:06:33;;;;;;;1.80;1.60;;;;;;;19.17;96.11;99947.45;1565552;92;21517;-85
2021/08/04 10:09:02;;;;;;;3.52;1.47;;;;;;;19.22;97.53;99953.11;1565632;92;21054;-86
2021/08/04 10:11:29;;;;;;;3.90;1.62;;;;;;;19.31;96.63;99952.03;1565538;92;21051;-86
2021/08/04 10:13:57;;;;;;;1.07;0.93;;;;;;;19.40;97.25;99951.48;1565539;92;21092;-87
2021/08/04 10:16:36;;;;;;;1.27;0.93;;;;;;;19.46;95.02;99941.41;1565739;91;21049;-87
2021/08/04 10:19:05;;;;;;;1.65;0.95;;;;;;;19.51;93.85;99940.86;1565635;91;21489;-87
2021/08/04 10:21:35;;;;;;;5.37;1.40;;;;;;;19.57;94.29;99938.81;1565517;92;21074;-86
2021/08/04 10:24:03;;;;;;;1.72;1.10;;;;;;;19.63;93.45;99943.45;1565516;92;21050;-87
2021/08/04 10:26:29;;;;;;;1.37;1.25;;;;;;;19.68;93.22;99944.62;1565623;92;21014;-87
2021/08/04 10:28:57;;;;;;;1.32;0.93;;;;;;;19.77;92.93;99936.52;1565697;92;21072;-89
2021/08/04 10:31:25;;;;;;;2.98;1.20;;;;;;;19.85;92.28;99940.47;1565569;92;21042;-90
2021/08/04 10:33:51;;;;;;;2.95;1.67;;;;;;;19.87;92.52;99939.77;1540291;92;21022;-89
2021/08/04 10:36:21;;;;;;;2.37;1.20;;;;;;;19.93;91.70;99937.70;1565784;92;21058;-88
2021/08/04 10:38:52;;;;;;;3.00;1.05;;;;;;;20.03;93.06;99939.62;1565632;92;21062;-89
2021/08/04 10:41:23;;;;;;;1.37;1.00;;;;;;;20.18;93.07;99933.47;1565791;92;21054;-88
2021/08/04 10:43:58;;;;;;;1.05;0.78;;;;;;;20.29;93.22;99938.36;1565705;92;21022;-88
2021/08/04 10:46:34;;;;;;;1.35;1.00;;;;;;;20.38;91.68;99941.28;1565535;91;21031;-89
2021/08/04 10:49:11;;;;;;;2.30;0.90;;;;;;;20.46;91.90;99935.00;1565771;92;21099;-88
2021/08/04 10:51:43;;;;;;;2.65;0.93;;;;;;;20.57;91.03;99935.41;1565574;92;21523;-88
2021/08/04 10:54:17;;;;;;;1.22;0.80;;;;;;;20.68;91.05;99934.61;1561891;92;21078;-89
2021/08/04 10:56:49;;;;;;;1.15;0.88;;;;;;;20.80;90.11;99938.48;1565229;92;21074;-91
2021/08/04 10:59:27;;;;;;;1.22;0.90;;;;;;;20.85;89.84;99933.37;1565996;92;20995;-89
2021/08/04 11:02:04;;;;;;;1.60;0.60;;;;;;;20.89;89.13;99933.31;1565562;92;21058;-90
2021/08/04 11:04:45;;;;;;;2.20;1.25;;;;;;;20.92;87.93;99935.62;1563292;92;21505;-90
2021/08/04 11:07:22;;;;;;;1.35;0.80;;;;;;;20.93;88.04;99929.27;1565498;92;21088;-89
2021/08/04 11:09:56;;;;;;;0.80;0.60;;;;;;;21.02;88.79;99929.45;1565637;92;21604;-90
2021/08/04 11:12:36;;;;;;;1.10;0.90;;;;;;;21.14;87.53;99933.83;1565503;92;21529;-89
2021/08/04 11:15:22;;;;;;;0.93;0.82;;;;;;;21.17;86.33;99931.28;1563649;90;21046;-89
2021/08/04 11:18:06;;;;;;;1.05;0.80;;;;;;;21.18;86.80;99931.59;1565612;92;21446;-87
2021/08/04 11:20:36;;;;;;;2.90;0.72;;;;;;;21.16;85.91;99932.28;1560664;92;21095;-88
2021/08/04 11:23:05;;;;;;;2.33;0.80;;;;;;;21.06;86.56;99932.09;1565446;91;21119;-87
2021/08/04 11:25:42;;;;;;;0.88;0.68;;;;;;;20.98;84.49;99924.14;1539822;92;21055;-87
2021/08/04 11:28:18;;;;;;;0.75;0.45;;;;;;;20.90;86.05;99921.59;1565667;92;21099;-88
2021/08/04 11:30:55;;;;;;;1.20;0.72;;;;;;;20.83;84.84;99922.02;1565782;91;21018;-87
2021/08/04 11:33:26;;;;;;;1.07;0.70;;;;;;;20.86;87.09;99912.23;1565720;91;21042;-89
2021/08/04 11:36:07;;;;;;;3.83;1.37;;;;;;;20.89;83.96;99918.56;1565894;92;21054;-88
2021/08/04 11:38:56;;;;;;;1.50;0.60;;;;;;;20.90;83.72;99918.08;1565638;91;21042;-87
2021/08/04 11:41:36;;;;;;;2.22;0.90;;;;;;;20.98;85.43;99916.10;1558173;90;21549;-87